createdAt,value
2022-12-08T00:02:15.857Z,20.40
2022-12-08T00:05:01.730Z,20.67
2022-12-08T00:07:48.043Z,16.53
2022-12-08T00:10:47.320Z,16.40
2022-12-08T00:13:12.154Z,19.57
2022-12-08T00:15:39.780Z,20.73
2022-12-08T00:18:09.660Z,23.30
2022-12-08T00:20:36.754Z,16.50
2022-12-08T00:23:04.481Z,17.10
2022-12-08T00:25:31.951Z,18.90
2022-12-08T00:28:00.368Z,16.73
2022-12-08T00:30:27.892Z,22.03
2022-12-08T00:32:58.023Z,21.07
2022-12-08T00:35:29.484Z,21.50
2022-12-08T00:38:00.987Z,20.10
2022-12-08T00:40:28.446Z,18.50
2022-12-08T00:42:55.809Z,20.33
2022-12-08T00:45:23.063Z,18.67
2022-12-08T00:47:50.354Z,22.63
2022-12-08T00:50:20.871Z,18.70
2022-12-08T00:52:55.516Z,17.60
2022-12-08T00:55:26.520Z,19.40
2022-12-08T00:57:56.880Z,24.07
2022-12-08T01:00:25.319Z,22.00
2022-12-08T01:02:53.618Z,21.27
2022-12-08T01:05:24.815Z,26.40
2022-12-08T01:07:54.529Z,21.63
2022-12-08T01:10:22.158Z,21.87
2022-12-08T01:12:59.696Z,26.43
2022-12-08T01:15:26.894Z,22.17
2022-12-08T01:17:54.729Z,24.13
2022-12-08T01:20:22.020Z,19.23
2022-12-08T01:22:49.603Z,24.13
2022-12-08T01:25:21.654Z,23.80
2022-12-08T01:27:49.469Z,26.00
2022-12-08T01:30:16.789Z,23.30
2022-12-08T01:32:44.570Z,24.80
2022-12-08T01:35:11.635Z,19.63
2022-12-08T01:37:39.055Z,21.57
2022-12-08T01:40:10.740Z,19.90
2022-12-08T01:42:52.075Z,22.90
2022-12-08T01:45:25.148Z,19.97
2022-12-08T01:48:00.670Z,23.30
2022-12-08T01:50:29.974Z,15.97
2022-12-08T01:53:01.763Z,17.57
2022-12-08T01:55:33.587Z,20.20
2022-12-08T01:58:07.587Z,16.43
2022-12-08T02:00:37.579Z,14.20
2022-12-08T02:03:14.225Z,19.73
2022-12-08T02:05:42.254Z,15.13
2022-12-08T02:08:12.204Z,14.47
2022-12-08T02:10:41.388Z,18.43
2022-12-08T02:13:13.521Z,15.10
2022-12-08T02:15:53.046Z,17.67
2022-12-08T02:18:33.662Z,16.20
2022-12-08T02:21:06.492Z,20.53
2022-12-08T02:23:42.937Z,20.43
2022-12-08T02:26:57.155Z,21.77
2022-12-08T02:29:53.130Z,19.33
2022-12-08T02:32:49.873Z,15.77
2022-12-08T02:35:24.303Z,17.80
2022-12-08T02:38:06.406Z,17.10
2022-12-08T02:40:38.068Z,20.17
2022-12-08T02:43:11.663Z,20.00
2022-12-08T02:45:43.653Z,22.50
2022-12-08T02:48:11.348Z,19.30
2022-12-08T02:50:40.453Z,20.10
2022-12-08T02:55:47.003Z,21.47
2022-12-08T02:58:43.799Z,16.53
2022-12-08T03:01:41.588Z,21.53
2022-12-08T03:04:17.608Z,19.47
2022-12-08T03:06:56.788Z,17.43
2022-12-08T03:09:33.966Z,25.57
2022-12-08T03:12:07.139Z,24.50
2022-12-08T03:14:44.976Z,19.77
2022-12-08T03:17:15.171Z,18.70
2022-12-08T03:19:44.258Z,22.70
2022-12-08T03:22:15.751Z,17.47
2022-12-08T03:24:45.846Z,19.53
2022-12-08T03:27:16.828Z,22.33
2022-12-08T03:29:44.211Z,18.80
2022-12-08T03:32:20.773Z,22.73
2022-12-08T03:34:49.497Z,17.30
2022-12-08T03:37:18.602Z,17.13
2022-12-08T03:39:46.005Z,21.13
2022-12-08T03:42:13.270Z,18.07
2022-12-08T03:44:40.357Z,19.10
2022-12-08T03:47:08.037Z,15.87
2022-12-08T03:49:35.331Z,27.13
2022-12-08T03:52:03.044Z,20.13
2022-12-08T03:54:32.098Z,15.87
2022-12-08T03:56:59.761Z,17.17
2022-12-08T03:59:27.392Z,19.00
2022-12-08T04:01:55.241Z,23.90
2022-12-08T04:04:23.519Z,18.13
2022-12-08T04:06:51.448Z,19.53
2022-12-08T04:09:20.090Z,16.83
2022-12-08T04:11:49.198Z,22.57
2022-12-08T04:14:16.846Z,20.63
2022-12-08T04:16:44.588Z,14.67
2022-12-08T04:19:12.028Z,21.03
2022-12-08T04:21:39.616Z,16.27
2022-12-08T04:24:07.606Z,19.87
2022-12-08T04:26:38.065Z,13.17
2022-12-08T04:29:07.574Z,20.30
2022-12-08T04:31:38.330Z,16.07
2022-12-08T04:34:06.139Z,18.83
2022-12-08T04:36:37.300Z,16.57
2022-12-08T04:39:05.049Z,15.23
2022-12-08T04:41:32.890Z,20.00
2022-12-08T04:44:06.115Z,21.37
2022-12-08T04:46:43.134Z,18.47
2022-12-08T04:49:27.982Z,20.73
2022-12-08T04:51:57.893Z,18.20
2022-12-08T04:54:28.243Z,20.40
2022-12-08T04:57:07.773Z,19.87
2022-12-08T04:59:35.547Z,22.67
2022-12-08T05:02:25.618Z,19.57
2022-12-08T05:05:14.298Z,19.17
2022-12-08T05:07:47.885Z,24.03
2022-12-08T05:10:24.383Z,25.57
2022-12-08T05:13:03.927Z,20.40
2022-12-08T05:15:31.959Z,24.97
2022-12-08T05:18:16.471Z,22.53
2022-12-08T05:20:47.174Z,22.00
2022-12-08T05:23:16.193Z,27.73
2022-12-08T05:25:47.184Z,20.90
2022-12-08T05:31:21.397Z,25.57
2022-12-08T05:34:02.746Z,22.43
2022-12-08T05:36:43.132Z,22.10
2022-12-08T05:39:23.281Z,21.07
2022-12-08T05:41:55.002Z,21.10
2022-12-08T05:44:37.226Z,27.77
2022-12-08T05:47:09.227Z,23.20
2022-12-08T05:49:42.209Z,23.13
2022-12-08T05:52:12.637Z,26.77
2022-12-08T05:54:50.612Z,27.10
2022-12-08T05:57:28.154Z,22.97
2022-12-08T05:59:59.892Z,29.27
2022-12-08T06:02:34.812Z,21.77
2022-12-08T06:05:08.021Z,24.67
2022-12-08T06:07:44.857Z,22.57
2022-12-08T06:10:24.470Z,24.10
2022-12-08T06:13:00.099Z,29.10
2022-12-08T06:15:35.900Z,25.80
2022-12-08T06:18:05.450Z,24.60
2022-12-08T06:20:47.877Z,28.20
2022-12-08T06:23:19.643Z,27.87
2022-12-08T06:25:48.273Z,26.17
2022-12-08T06:28:55.262Z,29.00
2022-12-08T06:31:27.730Z,26.00
2022-12-08T06:34:10.470Z,21.97
2022-12-08T06:36:49.562Z,24.93
2022-12-08T06:39:24.172Z,34.77
2022-12-08T06:42:20.093Z,24.63
2022-12-08T06:45:09.329Z,27.87
2022-12-08T06:47:37.048Z,25.97
2022-12-08T06:50:14.081Z,26.33
2022-12-08T06:53:01.061Z,27.33
2022-12-08T06:55:58.265Z,28.33
2022-12-08T06:58:26.371Z,29.57
2022-12-08T07:00:54.357Z,31.80
2022-12-08T07:03:24.204Z,30.70
2022-12-08T07:06:03.785Z,29.90
2022-12-08T07:08:33.234Z,31.17
2022-12-08T07:11:19.616Z,26.67
2022-12-08T07:13:49.667Z,23.53
2022-12-08T07:16:17.153Z,25.23
2022-12-08T07:18:45.036Z,29.17
2022-12-08T07:21:15.128Z,27.80
2022-12-08T07:23:46.608Z,27.67
2022-12-08T07:26:19.051Z,26.30
2022-12-08T07:28:50.599Z,31.87
2022-12-08T07:31:21.306Z,25.83
2022-12-08T07:33:55.076Z,29.20
2022-12-08T07:36:38.615Z,30.13
2022-12-08T07:39:24.485Z,29.77
2022-12-08T07:41:52.465Z,30.67
2022-12-08T07:44:28.563Z,29.57
2022-12-08T07:47:01.411Z,27.57
2022-12-08T07:49:39.131Z,26.97
2022-12-08T07:52:13.329Z,27.50
2022-12-08T07:54:53.906Z,28.10
2022-12-08T07:57:28.431Z,27.30
2022-12-08T08:00:14.371Z,28.63
2022-12-08T08:02:52.809Z,32.10
2022-12-08T08:05:21.703Z,32.77
2022-12-08T08:07:52.023Z,37.43
2022-12-08T08:10:21.840Z,36.40
2022-12-08T08:15:54.865Z,29.97
2022-12-08T08:18:25.763Z,32.30
2022-12-08T08:21:15.979Z,30.67
2022-12-08T08:23:49.873Z,35.40
2022-12-08T08:26:19.355Z,31.77
2022-12-08T08:28:46.251Z,38.07
2022-12-08T08:31:13.245Z,33.03
2022-12-08T08:33:40.176Z,36.63
2022-12-08T08:36:08.184Z,37.07
2022-12-08T08:38:36.535Z,32.10
2022-12-08T08:41:07.853Z,33.03
2022-12-08T08:43:38.562Z,31.43
2022-12-08T08:46:06.995Z,25.37
2022-12-08T08:48:34.482Z,28.37
2022-12-08T08:51:08.482Z,28.10
2022-12-08T08:53:35.452Z,31.23
2022-12-08T08:56:05.007Z,27.03
2022-12-08T08:58:31.887Z,27.80
2022-12-08T09:01:00.483Z,24.20
2022-12-08T09:03:27.417Z,21.43
2022-12-08T09:05:55.974Z,19.93
2022-12-08T09:08:23.652Z,18.90
2022-12-08T09:10:50.816Z,21.57
2022-12-08T09:13:17.688Z,20.10
2022-12-08T09:15:44.981Z,21.27
2022-12-08T09:18:13.313Z,18.30
2022-12-08T09:20:40.593Z,18.13
2022-12-08T09:23:07.491Z,16.90
2022-12-08T09:25:34.718Z,20.07
2022-12-08T09:28:01.566Z,18.53
2022-12-08T09:30:28.815Z,19.13
2022-12-08T09:32:55.740Z,18.53
2022-12-08T09:35:24.374Z,16.37
2022-12-08T09:37:51.240Z,18.90
2022-12-08T09:40:21.096Z,18.27
2022-12-08T09:42:52.031Z,21.23
2022-12-08T09:45:20.148Z,18.73
2022-12-08T09:47:56.937Z,18.20
2022-12-08T09:50:31.172Z,17.40
2022-12-08T09:53:03.844Z,20.47
2022-12-08T09:55:40.390Z,17.83
2022-12-08T09:58:17.650Z,17.47
2022-12-08T10:00:45.111Z,19.07
2022-12-08T10:03:16.713Z,20.40
2022-12-08T10:05:54.904Z,19.57
2022-12-08T10:08:29.067Z,17.47
2022-12-08T10:10:59.330Z,17.37
2022-12-08T10:13:34.463Z,18.80
2022-12-08T10:16:22.167Z,16.43
2022-12-08T10:18:55.676Z,15.93
2022-12-08T10:21:27.811Z,16.87
2022-12-08T10:24:01.499Z,16.37
2022-12-08T10:26:32.548Z,15.23
2022-12-08T10:29:02.669Z,16.70
2022-12-08T10:31:31.563Z,17.20
2022-12-08T10:34:00.327Z,16.10
2022-12-08T10:36:50.570Z,17.30
2022-12-08T10:39:38.097Z,16.30
2022-12-08T10:42:17.936Z,16.83
2022-12-08T10:44:56.157Z,19.90
2022-12-08T10:47:27.047Z,17.37
2022-12-08T10:50:09.521Z,27.23
2022-12-08T10:52:41.088Z,22.83
2022-12-08T10:55:15.119Z,15.80
2022-12-08T10:57:42.259Z,21.90
2022-12-08T11:00:14.383Z,16.87
2022-12-08T11:02:55.168Z,14.30
2022-12-08T11:05:25.993Z,13.97
2022-12-08T11:07:55.546Z,14.47
2022-12-08T11:10:32.832Z,14.23
2022-12-08T11:13:02.024Z,8.60
2022-12-08T11:15:34.461Z,7.43
2022-12-08T11:18:07.429Z,7.43
2022-12-08T11:20:39.261Z,6.90
2022-12-08T11:23:21.156Z,9.67
2022-12-08T11:25:48.985Z,8.83
2022-12-08T11:28:19.542Z,9.27
2022-12-08T11:30:54.294Z,10.60
2022-12-08T11:33:23.122Z,11.70
2022-12-08T11:35:53.112Z,11.00
2022-12-08T11:38:24.782Z,11.70
2022-12-08T11:40:55.583Z,11.53
2022-12-08T11:43:29.015Z,12.60
2022-12-08T11:46:01.401Z,12.80
2022-12-08T11:48:35.489Z,13.13
2022-12-08T11:51:06.720Z,11.73
2022-12-08T11:53:41.551Z,12.63
2022-12-08T11:56:17.344Z,11.37
2022-12-08T11:58:47.247Z,12.33
2022-12-08T12:01:19.906Z,11.33
2022-12-08T12:03:53.828Z,11.27
2022-12-08T12:06:55.314Z,11.80
2022-12-08T12:09:36.490Z,10.30
2022-12-08T12:12:16.706Z,11.27
2022-12-08T12:15:20.327Z,10.80
2022-12-08T12:17:51.212Z,10.63
2022-12-08T12:20:27.400Z,9.30
2022-12-08T12:23:01.018Z,10.90
2022-12-08T12:25:29.418Z,8.50
2022-12-08T12:28:00.662Z,8.50
2022-12-08T12:30:33.876Z,7.57
2022-12-08T12:33:02.854Z,8.77
2022-12-08T12:35:34.481Z,7.90
2022-12-08T12:38:04.581Z,8.93
2022-12-08T12:40:41.808Z,8.20
2022-12-08T12:43:14.678Z,7.23
2022-12-08T12:45:43.925Z,8.07
2022-12-08T12:48:21.812Z,7.83
2022-12-08T12:50:49.486Z,9.00
2022-12-08T12:53:47.278Z,7.83
2022-12-08T12:56:52.253Z,8.17
2022-12-08T12:59:39.751Z,8.20
2022-12-08T13:02:17.849Z,8.70
2022-12-08T13:04:53.100Z,8.83
2022-12-08T13:07:21.873Z,8.97
2022-12-08T13:09:57.047Z,10.03
2022-12-08T13:12:26.289Z,7.50
2022-12-08T13:14:58.524Z,8.20
2022-12-08T13:17:29.505Z,8.33
2022-12-08T13:19:59.652Z,10.17
2022-12-08T13:22:46.895Z,12.10
2022-12-08T13:25:45.432Z,9.10
2022-12-08T13:28:19.892Z,12.93
2022-12-08T13:30:49.091Z,10.37
2022-12-08T13:33:19.273Z,12.13
2022-12-08T13:36:17.665Z,9.87
2022-12-08T13:38:46.542Z,9.03
2022-12-08T13:41:18.162Z,9.07
2022-12-08T13:44:30.993Z,9.70
2022-12-08T13:47:31.733Z,9.20
2022-12-08T13:58:20.442Z,9.00
2022-12-08T14:01:00.437Z,9.20
2022-12-08T14:03:27.626Z,8.13
2022-12-08T14:06:12.948Z,9.17
2022-12-08T14:09:04.957Z,10.43
2022-12-08T14:11:41.119Z,13.17
2022-12-08T14:15:00.478Z,9.33
2022-12-08T14:17:26.571Z,13.33
2022-12-08T14:20:07.283Z,9.40
2022-12-08T14:22:57.369Z,9.03
2022-12-08T14:25:41.020Z,9.03
2022-12-08T14:28:20.715Z,10.00
2022-12-08T14:31:01.195Z,12.17
2022-12-08T14:33:37.254Z,9.23
2022-12-08T14:36:09.150Z,9.03
2022-12-08T14:38:49.108Z,10.80
2022-12-08T14:41:39.498Z,11.03
2022-12-08T14:44:24.000Z,9.20
2022-12-08T14:47:07.928Z,9.33
2022-12-08T14:49:44.388Z,8.23
2022-12-08T14:52:24.220Z,10.53
2022-12-08T14:55:02.105Z,11.50
2022-12-08T14:57:41.926Z,9.23
2022-12-08T15:00:23.498Z,9.90
2022-12-08T15:03:01.222Z,8.90
2022-12-08T15:05:40.789Z,9.70
2022-12-08T15:08:24.189Z,7.60
2022-12-08T15:11:18.987Z,8.37
2022-12-08T15:14:00.127Z,7.93
2022-12-08T15:16:48.988Z,8.37
2022-12-08T15:19:22.217Z,9.00
2022-12-08T15:21:58.824Z,8.87
2022-12-08T15:24:38.199Z,10.13
2022-12-08T15:27:18.649Z,9.70
2022-12-08T15:29:49.958Z,11.20
2022-12-08T15:32:40.183Z,12.87
2022-12-08T15:35:20.732Z,10.03
2022-12-08T15:37:51.126Z,11.63
2022-12-08T15:40:19.963Z,9.67
2022-12-08T15:42:48.972Z,10.30
2022-12-08T15:45:17.274Z,10.00
2022-12-08T15:47:45.488Z,10.00
2022-12-08T15:50:16.076Z,10.37
2022-12-08T15:52:43.832Z,12.17
2022-12-08T15:55:14.429Z,13.03
2022-12-08T15:58:31.267Z,12.70
2022-12-08T16:03:59.869Z,12.23
2022-12-08T16:07:26.859Z,14.47
2022-12-08T16:09:14.677Z,14.70
2022-12-08T16:12:07.312Z,13.57
2022-12-08T16:17:23.636Z,12.27
2022-12-08T16:19:50.661Z,15.27
2022-12-08T16:25:22.369Z,19.63
2022-12-08T16:28:29.616Z,18.97
2022-12-08T16:31:13.154Z,17.43
2022-12-08T16:34:19.557Z,15.50
2022-12-08T16:36:51.942Z,14.73
2022-12-08T16:39:28.681Z,18.20
2022-12-08T16:42:40.884Z,19.20
2022-12-08T16:45:18.203Z,31.53
2022-12-08T16:47:47.450Z,24.97
2022-12-08T16:50:22.954Z,25.23
2022-12-08T16:53:01.976Z,24.07
2022-12-08T16:55:30.843Z,19.90
2022-12-08T16:58:08.159Z,19.30
2022-12-08T17:00:38.331Z,20.23
2022-12-08T17:03:09.757Z,21.50
2022-12-08T17:05:43.811Z,22.00
2022-12-08T17:08:24.721Z,22.17
2022-12-08T17:11:11.527Z,20.57
2022-12-08T17:13:51.079Z,22.23
2022-12-08T17:16:23.429Z,17.40
2022-12-08T17:19:10.874Z,21.77
2022-12-08T17:21:41.790Z,20.77
2022-12-08T17:24:18.589Z,23.03
2022-12-08T17:26:52.255Z,51.57
2022-12-08T17:29:23.165Z,27.83
2022-12-08T17:32:10.326Z,29.50
2022-12-08T17:34:44.905Z,24.80
2022-12-08T17:37:18.378Z,22.80
2022-12-08T17:39:49.548Z,24.40
2022-12-08T17:42:19.759Z,26.30
2022-12-08T17:44:57.621Z,26.37
2022-12-08T17:47:35.882Z,24.10
2022-12-08T17:50:04.847Z,24.27
2022-12-08T17:52:35.863Z,22.60
2022-12-08T17:55:11.515Z,22.90
2022-12-08T17:57:49.637Z,23.47
2022-12-08T18:00:22.571Z,26.30
2022-12-08T18:02:52.649Z,24.73
2022-12-08T18:05:23.889Z,23.33
2022-12-08T18:07:59.699Z,23.90
2022-12-08T18:10:27.996Z,22.57
2022-12-08T18:13:01.448Z,27.63
2022-12-08T18:15:32.516Z,23.83
2022-12-08T18:18:12.771Z,21.77
2022-12-08T18:20:39.916Z,24.20
2022-12-08T18:23:13.401Z,25.03
2022-12-08T18:25:57.506Z,25.30
2022-12-08T18:28:28.616Z,23.60
2022-12-08T18:31:06.029Z,23.70
2022-12-08T18:33:49.561Z,26.33
2022-12-08T18:36:34.922Z,26.40
2022-12-08T18:39:21.469Z,21.43
2022-12-08T18:41:49.359Z,32.17
2022-12-08T18:44:19.704Z,29.20
2022-12-08T18:47:02.876Z,46.00
2022-12-08T18:49:35.199Z,29.33
2022-12-08T18:52:03.495Z,33.47
2022-12-08T18:55:04.597Z,26.13
2022-12-08T18:57:25.568Z,26.00
2022-12-08T19:00:04.811Z,33.83
2022-12-08T19:02:34.475Z,30.20
2022-12-08T19:05:06.470Z,55.27
2022-12-08T19:07:34.812Z,46.03
2022-12-08T19:10:03.364Z,42.13
2022-12-08T19:12:33.247Z,86.47
2022-12-08T19:15:03.837Z,35.27
2022-12-08T19:17:41.598Z,32.23
2022-12-08T19:20:14.118Z,35.70
2022-12-08T19:22:41.818Z,32.20
2022-12-08T19:25:10.056Z,34.77
2022-12-08T19:27:44.611Z,31.90
2022-12-08T19:30:15.500Z,34.20
2022-12-08T19:32:43.757Z,37.83
2022-12-08T19:35:24.844Z,34.93
2022-12-08T19:37:58.908Z,35.23
2022-12-08T19:40:56.188Z,40.07
2022-12-08T19:43:52.938Z,37.73
2022-12-08T19:46:28.429Z,38.70
2022-12-08T19:48:56.259Z,36.23
2022-12-08T19:51:28.614Z,36.07
2022-12-08T19:54:03.447Z,121.77
2022-12-08T19:56:44.295Z,43.30
2022-12-08T19:59:22.746Z,39.30
2022-12-08T20:02:06.821Z,43.00
2022-12-08T20:04:42.730Z,41.10
2022-12-08T20:07:13.677Z,44.17
2022-12-08T20:10:08.420Z,41.10
2022-12-08T20:12:42.636Z,40.13
2022-12-08T20:15:19.835Z,44.63
2022-12-08T20:17:47.478Z,42.60
2022-12-08T20:20:15.542Z,45.43
2022-12-08T20:22:46.154Z,46.07
2022-12-08T20:25:14.424Z,44.33
2022-12-08T20:27:42.140Z,49.40
2022-12-08T20:30:17.081Z,44.47
2022-12-08T20:32:59.369Z,48.73
2022-12-08T20:35:33.150Z,46.50
2022-12-08T20:38:02.534Z,44.17
2022-12-08T20:40:33.494Z,45.70
2022-12-08T20:43:03.926Z,45.67
2022-12-08T20:45:33.451Z,49.20
2022-12-08T20:48:01.316Z,48.97
2022-12-08T20:50:30.622Z,45.50
2022-12-08T20:52:58.232Z,43.33
2022-12-08T20:55:30.996Z,47.37
2022-12-08T20:57:58.863Z,47.20
2022-12-08T21:00:28.204Z,47.50
2022-12-08T21:02:59.254Z,43.77
2022-12-08T21:05:32.471Z,37.57
2022-12-08T21:08:03.777Z,46.83
2022-12-08T21:10:43.812Z,40.10
2022-12-08T21:13:20.016Z,41.00
2022-12-08T21:15:48.168Z,41.27
2022-12-08T21:18:20.273Z,44.47
2022-12-08T21:20:54.091Z,47.07
2022-12-08T21:23:22.047Z,44.87
2022-12-08T21:25:54.994Z,42.93
2022-12-08T21:28:26.705Z,42.83
2022-12-08T21:30:56.134Z,43.63
2022-12-08T21:33:24.183Z,44.33
2022-12-08T21:36:01.062Z,50.03
2022-12-08T21:38:30.450Z,48.53
2022-12-08T21:41:07.551Z,42.93
2022-12-08T21:43:36.724Z,44.23
2022-12-08T21:46:21.391Z,45.13
2022-12-08T21:48:49.672Z,50.10
2022-12-08T21:51:22.314Z,45.77
2022-12-08T21:53:50.484Z,46.73
2022-12-08T21:56:26.727Z,44.63
2022-12-08T21:58:59.890Z,44.80
2022-12-08T22:01:31.009Z,49.13
2022-12-08T22:04:01.705Z,50.33
2022-12-08T22:06:28.770Z,52.43
2022-12-08T22:08:57.679Z,45.13
2022-12-08T22:11:29.956Z,49.63
2022-12-08T22:14:00.713Z,44.30
2022-12-08T22:16:29.462Z,42.60
2022-12-08T22:18:57.011Z,45.80
2022-12-08T22:21:24.262Z,45.10
2022-12-08T22:23:52.318Z,44.37
2022-12-08T22:26:19.798Z,46.07
2022-12-08T22:28:49.074Z,52.50
2022-12-08T22:31:23.438Z,50.27
2022-12-08T22:33:51.565Z,49.67
2022-12-08T22:36:21.279Z,52.53
2022-12-08T22:38:53.045Z,46.57
2022-12-08T22:41:21.468Z,50.83
2022-12-08T22:43:51.772Z,48.57
2022-12-08T22:46:22.299Z,51.63
2022-12-08T22:48:53.536Z,46.73
2022-12-08T22:51:24.701Z,48.77
2022-12-08T22:53:53.051Z,50.23
2022-12-08T22:56:23.730Z,49.37
2022-12-08T22:58:52.586Z,56.00
2022-12-08T23:01:27.470Z,53.50
2022-12-08T23:03:57.918Z,50.53
2022-12-08T23:06:26.765Z,50.43
2022-12-08T23:08:55.147Z,51.70
2022-12-08T23:11:28.901Z,54.90
2022-12-08T23:13:58.479Z,51.93
2022-12-08T23:16:26.351Z,53.73
2022-12-08T23:18:57.120Z,50.57
2022-12-08T23:21:25.007Z,54.03
2022-12-08T23:23:53.157Z,61.00
2022-12-08T23:26:25.767Z,54.50
2022-12-08T23:28:53.905Z,55.57
2022-12-08T23:31:23.813Z,60.17
2022-12-08T23:33:52.467Z,73.07
2022-12-08T23:36:20.484Z,81.03
2022-12-08T23:38:47.993Z,58.97
2022-12-08T23:41:23.452Z,57.70
2022-12-08T23:43:54.543Z,62.73
2022-12-08T23:46:25.312Z,55.50
2022-12-08T23:48:56.256Z,55.90
2022-12-08T23:51:23.707Z,55.33
2022-12-08T23:53:51.387Z,57.37
2022-12-08T23:56:29.891Z,50.53
2022-12-08T23:59:01.748Z,52.67
